ADDS METAR Data INFO
IDs: Format: Raw Decoded Include TAF

Data at: 1005 UTC 12 Dec 2017

KSTS 121001Z AUTO 00000KT 3SM BR CLR 01/01 A3033 RMK AO2 T00060006
KSTS 120953Z AUTO 00000KT 2 1/2SM BR CLR 01/00 A3034 RMK AO2 SLP266 T00060000
KSTS 120938Z AUTO 00000KT 2SM BR CLR 00/00 A3033 RMK AO2 VIS 1V5 T00000000
KSTS 120853Z AUTO 28003KT 7SM CLR 02/02 A3033 RMK AO2 SLP265 T00170017 51006
KSTS 120850Z AUTO 00000KT 4SM BR CLR 02/02 A3033 RMK AO2
KSTS 120819Z AUTO 00000KT 1 1/4SM BR SCT002 02/02 A3033 RMK AO2 T00220022
KSTS 120755Z AUTO 00000KT 3/4SM BR VV002 01/01 A3033 RMK AO2 T00110011
KSTS 120753Z AUTO 00000KT 1 1/4SM BR FEW002 01/01 A3033 RMK AO2 SLP265 T00060006 401781017
KSTS 120716Z AUTO 00000KT 1/2SM FG CLR 02/02 A3033 RMK AO2 T00220022
KSTS 120653Z AUTO 00000KT 1/4SM FG CLR 02/02 A3032 RMK AO2 SLP263 T00220022
KSTS 120639Z AUTO 00000KT 3/4SM BR CLR 03/03 A3032 RMK AO2 T00330033
KSTS 120632Z AUTO 00000KT 1/4SM FG CLR 03/03 A3032 RMK AO2 T00330028
KSTS 120622Z AUTO 00000KT 3/4SM BR CLR 03/03 A3032 RMK AO2 T00330028
KSTS 120617Z AUTO 00000KT 2 1/2SM BR CLR 03/02 A3032 RMK AO2 T00330022
KSTS 120606Z AUTO 00000KT 1 3/4SM BR CLR 03/03 A3032 RMK AO2 VIS 1V5 T00280028
KSTS 120553Z AUTO 27003KT 9SM CLR 04/03 A3032 RMK AO2 SLP261 T00390033 10167 20039 52007
KSTS 120453Z AUTO 31003KT 10SM CLR 05/04 A3031 RMK AO2 SLP258 T00500044
KSTS 120353Z AUTO 33003KT 10SM CLR 05/04 A3030 RMK AO2 SLP256 T00500044
KSTS 120253Z 36003KT 10SM CLR 07/06 A3030 RMK AO2 SLP254 T00720056 53013
KSTS 120153Z 30004KT 10SM CLR 09/06 A3028 RMK AO2 SLP247 T00940056
KSTS 120053Z 00000KT 10SM SCT250 12/06 A3027 RMK AO2 SLP245 T01170056
KSTS 112353Z 00000KT 10SM SCT250 17/06 A3026 RMK AO2 SLP241 T01670056 10178 20039 55004
KSTS 112253Z 17004KT 10SM SCT250 18/04 A3025 RMK AO2 SLP237 T01780044
KSTS 112153Z 11004KT 10SM SCT250 18/04 A3025 RMK AO2 SLP237 T01780039
KSTS 112053Z 00000KT 10SM SCT250 16/03 A3027 RMK AO2 SLP245 T01560028 58018
KSTS 111953Z 00000KT 10SM SCT250 13/03 A3029 RMK AO2 SLP253 T01280028
KSTS 111853Z COR 03003KT 10SM FEW250 10/03 A3032 RMK AO2 SLP261 T01000033
KSTS 111753Z 00000KT 10SM SCT250 03/03 A3032 RMK AO2 SLP262 T00330033 10033 21017 51013
KSTS 111653Z 00000KT 10SM SCT250 01/01 A3031 RMK AO2 SLP260 T00110011
KSTS 111553Z 00000KT 10SM SCT250 00/M01 A3030 RMK AO2 SLP254 T00001006
KSTS 111500Z 00000KT 10SM SCT250 M01/M01 A3029 RMK AO2 T10111011
KSTS 111453Z COR 00000KT 10SM SCT250 M01/M01 A3029 RMK AO2 SLP250 T10111011 53006
KSTS 111446Z 00000KT 2 1/2SM BR CLR M01/M01 A3028 RMK AO2 VIS 1 1/4V5 T10111011
KSTS 111416Z 00000KT 3SM BR FEW002 M01/M01 A3028 RMK AO2 T10111011
KSTS 111408Z 00000KT 2SM BR FEW002 M01/M01 A3027 RMK AO2 VIS 3/4V5 T10111011
KSTS 111353Z 00000KT 1 1/2SM BR CLR M01/M02 A3027 RMK AO2 SLP244 T10111017
KSTS 111316Z 00000KT 3SM BR CLR M01/M01 A3027 RMK AO2 T10061006
KSTS 111309Z 00000KT 1 1/4SM BR FEW001 M01/M01 A3027 RMK AO2 T10111011
KSTS 111253Z 00000KT 1/2SM FZFG VV002 M01/M01 A3027 RMK AO2 SLP244 T10111011
KSTS 111248Z 00000KT 1/4SM FZFG VV002 M01/M01 A3027 RMK AO2
KSTS 111239Z 00000KT 1/2SM FZFG VV002 M01/M01 A3027 RMK AO2 T10111011
KSTS 111221Z 00000KT 1/4SM FG VV001 00/00 A3027 RMK AO2 T00000000
KSTS 111215Z 00000KT 1 1/2SM BR BKN002 M01/M01 A3026 RMK AO2 VIS 1/2V5 T10061011
KSTS 111205Z 00000KT 9SM FEW001 M01/M01 A3027 RMK AO2 T10061011
KSTS 111157Z 00000KT 1 1/4SM BR SCT001 00/00 A3027 RMK AO2 T00000000
KSTS 111153Z 00000KT 1/2SM FZFG VV001 M01/M01 A3027 RMK AO2 SLP245 T10061006 10039 21017 51009
KSTS 111141Z 00000KT 1SM BR VV002 M01/M01 A3027 RMK AO2 T10111011
KSTS 111130Z 00000KT 1/4SM FG VV001 00/00 A3027 RMK AO2 T00000000
KSTS 111117Z 00000KT 1/4SM FZFG CLR M01/M01 A3027 RMK AO2 T10111011
KSTS 111107Z 00000KT 3/4SM BR VV002 M01/M01 A3027 RMK AO2 T10111011
KSTS 111104Z 00000KT 1 3/4SM BR SCT002 M02/M02 A3027 RMK AO2 T10171017
KSTS 111057Z 00000KT 4SM BR FEW002 M01/M01 A3027 RMK AO2 T10061006
KSTS 111055Z 00000KT 1 1/2SM BR FEW002 M01/M01 A3027 RMK AO2 T10061006
KSTS 111053Z 00000KT 3/4SM BR VV002 M01/M01 A3027 RMK AO2 SLP244 T10061006
KSTS 111039Z 00000KT 3/4SM BR VV002 00/00 A3026 RMK AO2 T00000000
KSTS 111031Z 00000KT 1SM BR VV002 01/00 A3026 RMK AO2 T00060000
KSTS 111024Z 00000KT 2 1/2SM BR FEW002 01/00 A3026 RMK AO2 VIS 3/4V5 T00060000
KSTS 111016Z 00000KT 1 1/4SM BR FEW002 00/00 A3026 RMK AO2 T00000000
KSTS 111002Z 00000KT 3/4SM BR CLR 01/01 A3026 RMK AO2 T00110011
KSTS 110953Z 00000KT 2SM BR CLR 01/01 A3026 RMK AO2 VIS 1 1/2V4 SLP240 T00110011
KSTS 110853Z 00000KT 8SM CLR 01/01 A3024 RMK AO2 SLP236 T00110011 50003
KSTS 110753Z 32004KT 9SM CLR 03/02 A3025 RMK AO2 SLP236 T00280022 401781022
KSTS 110724Z 00000KT 3SM BR CLR 02/02 A3025 RMK AO2 T00220022
KSTS 110710Z 00000KT 2SM BR CLR 03/03 A3024 RMK AO2 T00280028
KSTS 110653Z 34003KT 5SM BR CLR 03/03 A3024 RMK AO2 SLP235 T00330033
KSTS 110553Z 34003KT 6SM BR CLR 04/04 A3023 RMK AO2 SLP233 T00390039 10172 20039 51015
KSTS 110453Z 00000KT 10SM CLR 05/04 A3022 RMK AO2 SLP229 T00500044
KSTS 110353Z 34003KT 10SM CLR 06/04 A3020 RMK AO2 SLP223 T00560044
KSTS 110253Z 00000KT 10SM CLR 08/06 A3019 RMK AO2 SLP218 T00780056 55000
KSTS 110153Z 00000KT 9SM CLR 10/06 A3018 RMK AO2 SLP216 T01000061
KSTS 110053Z 00000KT 10SM SCT250 14/07 A3018 RMK AO2 SLP215 T01390067
KSTS 102353Z 00000KT 10SM CLR 17/06 A3019 RMK AO2 SLP218 T01720061 10178 20061 56014
KSTS 102253Z 00000KT 10SM FEW250 17/06 A3019 RMK AO2 SLP217 T01720056